Time;durP1;ratioP1;P1;durP2;ratioP2;P2;SDS_P1;SDS_P2;PMS_P1;PMS_P2;Temp;Humidity;BMP_temperature;BMP_pressure;BME280_temperature;BME280_humidity;BME280_pressure;Samples;Min_cycle;Max_cycle;Signal;HPM_P1;HPM_P2
2021/08/30 00:00:19;;;;;;;2.45;1.00;;;;;;;19.96;59.56;102303.53;5097767;28;20861;-68
2021/08/30 00:02:44;;;;;;;3.97;1.30;;;;;;;19.95;57.83;102296.34;5075843;28;20020;-69
2021/08/30 00:05:10;;;;;;;3.25;1.20;;;;;;;19.87;58.37;102299.81;5093946;28;20106;-68
2021/08/30 00:07:36;;;;;;;1.67;1.20;;;;;;;19.89;58.12;102302.41;5094087;28;20031;-68
2021/08/30 00:10:03;;;;;;;3.75;1.42;;;;;;;19.89;58.31;102295.06;5094704;28;20091;-67
2021/08/30 00:12:28;;;;;;;3.67;1.20;;;;;;;19.90;59.13;102298.66;5106133;28;20050;-67
2021/08/30 00:14:55;;;;;;;3.15;1.40;;;;;;;19.90;58.81;102302.25;5095548;28;20027;-66
2021/08/30 00:17:20;;;;;;;2.03;1.20;;;;;;;19.85;58.22;102300.97;5094323;28;20070;-68
2021/08/30 00:19:45;;;;;;;1.77;1.00;;;;;;;19.83;59.07;102304.72;5093553;28;20024;-68
2021/08/30 00:22:11;;;;;;;1.90;1.17;;;;;;;19.77;59.41;102299.81;5093411;28;20027;-68
2021/08/30 00:24:36;;;;;;;2.40;1.13;;;;;;;19.85;57.76;102301.84;5093760;28;20024;-67
2021/08/30 00:27:01;;;;;;;1.73;1.08;;;;;;;19.81;57.90;102297.66;5093039;28;20653;-69
2021/08/30 00:29:27;;;;;;;3.45;1.30;;;;;;;19.80;59.12;102298.66;5098667;28;20016;-68
2021/08/30 00:31:54;;;;;;;2.78;1.30;;;;;;;19.84;58.85;102291.94;5074859;28;20024;-67
2021/08/30 00:34:19;;;;;;;1.20;1.10;;;;;;;19.80;58.38;102298.66;5093369;28;20042;-68
2021/08/30 00:36:45;;;;;;;2.78;1.13;;;;;;;19.82;58.82;102297.53;5093639;28;20380;-68
2021/08/30 00:39:10;;;;;;;4.75;1.08;;;;;;;19.76;58.91;102298.09;5096842;28;20031;-67
2021/08/30 00:41:35;;;;;;;3.20;1.20;;;;;;;19.78;58.65;102306.13;5095207;28;20031;-68
2021/08/30 00:44:00;;;;;;;2.47;1.20;;;;;;;19.78;59.30;102307.00;5093330;28;20016;-68
2021/08/30 00:46:26;;;;;;;3.13;1.50;;;;;;;19.74;58.73;102304.72;5093395;28;20020;-68
2021/08/30 00:48:51;;;;;;;2.75;1.45;;;;;;;19.74;58.86;102304.72;5093222;28;20020;-68
2021/08/30 00:51:18;;;;;;;2.38;1.25;;;;;;;19.76;58.20;102313.63;5093421;28;20024;-68
2021/08/30 00:53:45;;;;;;;2.85;1.17;;;;;;;19.74;58.34;102316.50;5093130;28;20012;-68
2021/08/30 00:56:13;;;;;;;2.67;0.98;;;;;;;19.76;59.39;102313.63;5097743;28;20020;-68
2021/08/30 00:58:42;;;;;;;2.35;1.50;;;;;;;19.68;58.16;102313.50;5092951;28;20489;-69
2021/08/30 01:01:14;;;;;;;1.33;0.93;;;;;;;19.70;59.99;102319.66;5093086;28;20028;-68
2021/08/30 01:03:40;;;;;;;3.95;1.33;;;;;;;19.69;58.64;102312.50;5093081;28;20032;-68
2021/08/30 01:06:25;;;;;;;1.85;0.88;;;;;;;19.72;58.43;102317.66;5093114;28;20023;-69
2021/08/30 01:09:13;;;;;;;1.67;1.17;;;;;;;19.69;58.40;102315.22;5092946;28;20028;-68
2021/08/30 01:11:50;;;;;;;3.72;1.38;;;;;;;19.67;58.48;102315.34;5094172;28;20028;-68
2021/08/30 01:14:19;;;;;;;4.47;1.33;;;;;;;19.66;59.14;102318.25;5093199;28;20139;-68
2021/08/30 01:16:46;;;;;;;3.38;1.25;;;;;;;19.67;59.38;102314.50;5092884;28;20020;-68
2021/08/30 01:19:30;;;;;;;1.80;0.98;;;;;;;19.71;59.33;102314.06;5093098;28;20030;-68
2021/08/30 01:21:56;;;;;;;2.78;1.20;;;;;;;19.68;58.84;102314.34;5092820;28;20065;-68
2021/08/30 01:24:21;;;;;;;1.45;0.93;;;;;;;19.65;58.48;102311.91;5093076;28;20028;-68
2021/08/30 01:26:54;;;;;;;3.65;1.42;;;;;;;19.69;59.49;102310.63;5093116;28;20028;-67
2021/08/30 01:29:36;;;;;;;1.75;1.20;;;;;;;19.72;58.80;102317.66;5094280;28;20058;-68
2021/08/30 01:32:17;;;;;;;4.07;1.40;;;;;;;19.62;58.56;102311.31;5092826;28;20026;-68
2021/08/30 01:34:43;;;;;;;2.92;1.25;;;;;;;19.70;59.22;102311.47;5095638;28;20107;-68
2021/08/30 01:37:09;;;;;;;1.70;1.25;;;;;;;19.63;58.46;102302.13;5092595;28;20471;-68
2021/08/30 01:39:35;;;;;;;5.13;1.95;;;;;;;19.69;59.01;102298.84;5096256;28;20032;-67
2021/08/30 01:42:01;;;;;;;2.25;1.20;;;;;;;19.61;58.46;102299.56;5096271;28;20028;-69
2021/08/30 01:44:29;;;;;;;1.90;1.27;;;;;;;19.60;59.60;102299.69;5096919;28;20039;-68
2021/08/30 01:46:56;;;;;;;2.08;1.15;;;;;;;19.60;58.25;102291.50;5101106;28;20028;-68
2021/08/30 01:49:25;;;;;;;1.42;0.77;;;;;;;19.63;59.05;102291.22;5078727;28;20020;-68
2021/08/30 01:51:51;;;;;;;1.73;0.93;;;;;;;19.61;59.03;102285.91;5096602;28;20032;-68
2021/08/30 01:54:19;;;;;;;2.45;1.20;;;;;;;19.65;58.67;102291.94;5096447;28;20078;-67
2021/08/30 01:56:49;;;;;;;1.30;1.00;;;;;;;19.61;58.73;102298.69;5096429;28;20032;-68
2021/08/30 02:02:32;;;;;;;3.35;1.35;;;;;;;19.60;59.57;102296.97;5105188;28;20092;-67
2021/08/30 02:04:57;;;;;;;2.70;1.13;;;;;;;19.58;58.68;102293.53;5096014;28;20032;-67
2021/08/30 02:07:23;;;;;;;2.85;1.27;;;;;;;19.59;59.03;102289.78;5096599;28;20032;-68
2021/08/30 02:09:49;;;;;;;2.55;1.02;;;;;;;19.62;58.91;102294.94;5096445;28;20020;-68
2021/08/30 02:12:16;;;;;;;2.90;1.08;;;;;;;19.58;58.82;102294.38;5096289;28;20028;-68
2021/08/30 02:14:41;;;;;;;3.42;1.70;;;;;;;19.52;58.51;102290.34;5099080;28;20034;-67
2021/08/30 02:17:11;;;;;;;2.05;1.00;;;;;;;19.56;58.37;102284.63;5096116;28;20028;-68
2021/08/30 02:19:56;;;;;;;2.58;1.15;;;;;;;19.55;60.42;102277.44;5096089;28;20465;-68
2021/08/30 02:22:34;;;;;;;1.73;0.82;;;;;;;19.57;59.23;102283.63;5095929;28;20035;-67
2021/08/30 02:25:04;;;;;;;2.33;1.08;;;;;;;19.52;60.30;102284.88;5095996;28;20039;-67
2021/08/30 02:27:39;;;;;;;2.65;1.42;;;;;;;19.48;58.69;102283.47;5099902;28;20032;-67
2021/08/30 02:30:17;;;;;;;;;;;;;;;19.51;59.13;102276.84;5098207;28;20529;-68
2021/08/30 02:32:44;;;;;;;1.17;0.90;;;;;;;19.53;58.94;102281.16;5096018;28;19908;-68
2021/08/30 02:35:14;;;;;;;2.85;1.35;;;;;;;19.51;59.33;102283.19;5095619;28;20127;-68
2021/08/30 02:37:42;;;;;;;4.07;1.23;;;;;;;19.52;59.03;102279.44;5096005;28;20059;-68
2021/08/30 02:40:09;;;;;;;2.42;1.02;;;;;;;19.56;58.20;102284.63;5095354;28;20061;-68
2021/08/30 02:42:46;;;;;;;1.75;0.95;;;;;;;19.49;58.94;102279.72;5098055;28;20415;-69
2021/08/30 02:45:13;;;;;;;3.03;1.00;;;;;;;19.49;59.25;102279.72;5094198;28;20461;-68
2021/08/30 02:47:39;;;;;;;1.95;0.95;;;;;;;19.52;58.45;102279.44;5076112;28;20035;-68
2021/08/30 02:50:07;;;;;;;1.45;0.90;;;;;;;19.47;59.25;102275.41;5094816;28;20024;-68
2021/08/30 02:52:34;;;;;;;2.35;1.10;;;;;;;19.47;58.62;102227.16;5095585;28;20023;-69
2021/08/30 02:55:01;;;;;;;0.90;0.50;;;;;;;19.48;59.37;102233.47;5096007;28;20367;-69
2021/08/30 02:57:29;;;;;;;2.45;0.82;;;;;;;19.47;58.82;102213.53;5100781;28;20323;-68
2021/08/30 02:59:55;;;;;;;1.65;0.80;;;;;;;19.51;59.38;102304.13;5054802;28;20394;-69
2021/08/30 03:02:22;;;;;;;1.83;0.98;;;;;;;19.44;59.82;102276.56;5055060;28;20029;-69
2021/08/30 03:04:48;;;;;;;3.10;1.25;;;;;;;19.42;59.75;102273.13;5055184;28;20017;-69
2021/08/30 03:07:15;;;;;;;1.83;0.75;;;;;;;19.48;59.22;102271.66;5055215;28;20029;-69
2021/08/30 03:09:40;;;;;;;4.25;0.70;;;;;;;19.51;58.97;102271.41;5054948;28;20032;-69
2021/08/30 03:12:07;;;;;;;2.92;1.05;;;;;;;19.47;59.08;102275.41;5054813;28;20100;-68
2021/08/30 03:14:36;;;;;;;2.28;0.85;;;;;;;19.42;58.82;102284.03;5055988;28;20373;-69
2021/08/30 03:17:05;;;;;;;2.30;1.10;;;;;;;19.44;58.98;102287.47;5054902;28;20036;-69
2021/08/30 03:19:31;;;;;;;2.78;0.90;;;;;;;19.41;58.66;102286.91;5054636;28;20037;-68
2021/08/30 03:21:59;;;;;;;1.58;1.00;;;;;;;19.42;59.33;102272.25;5054478;28;20017;-70
2021/08/30 03:24:27;;;;;;;1.98;0.80;;;;;;;19.39;60.06;102237.94;5053388;28;20025;-69
2021/08/30 03:26:54;;;;;;;1.80;0.60;;;;;;;19.44;59.95;102237.50;5061928;28;20056;-69
2021/08/30 03:29:21;;;;;;;1.88;0.60;;;;;;;19.43;59.89;102241.25;5054278;28;20541;-70
2021/08/30 03:31:50;;;;;;;1.00;0.90;;;;;;;19.42;59.66;102245.84;5054640;28;20056;-68
2021/08/30 03:34:17;;;;;;;2.13;0.88;;;;;;;19.39;59.13;102243.41;5054546;28;20493;-68
2021/08/30 03:36:43;;;;;;;2.63;1.05;;;;;;;19.42;59.07;102248.56;5054468;28;20083;-69
2021/08/30 03:39:09;;;;;;;1.38;0.40;;;;;;;19.42;59.41;102245.84;5054319;28;20033;-69
2021/08/30 03:41:36;;;;;;;0.70;0.50;;;;;;;19.40;59.18;102256.03;5054367;28;20024;-69
2021/08/30 03:44:03;;;;;;;1.60;0.60;;;;;;;19.38;59.31;102249.88;5057373;28;20033;-69
2021/08/30 03:46:30;;;;;;;3.33;0.77;;;;;;;19.41;59.65;102254.16;5054219;28;20017;-69
2021/08/30 03:48:56;;;;;;;1.15;0.68;;;;;;;19.40;59.28;102257.91;5052679;28;20112;-68
2021/08/30 03:51:23;;;;;;;2.35;0.85;;;;;;;19.38;59.78;102249.88;5054419;28;20016;-69
2021/08/30 03:53:50;;;;;;;0.82;0.40;;;;;;;19.39;59.88;102256.19;5054681;28;20017;-69
2021/08/30 03:56:16;;;;;;;1.95;0.63;;;;;;;19.40;60.12;102258.75;5054975;28;20024;-69
2021/08/30 03:58:43;;;;;;;1.92;0.98;;;;;;;19.38;60.07;102255.31;5080010;28;20048;-69
2021/08/30 04:01:11;;;;;;;1.92;0.65;;;;;;;19.37;59.87;102259.06;5093696;28;20035;-69
2021/08/30 04:03:43;;;;;;;1.10;0.38;;;;;;;20.20;57.90;102245.69;5093969;28;20021;-68
2021/08/30 04:06:10;;;;;;;0.55;0.43;;;;;;;20.47;57.11;102253.94;5093975;28;20063;-69
2021/08/30 04:08:38;;;;;;;2.88;0.60;;;;;;;20.68;56.72;102237.28;5094291;28;20480;-68
2021/08/30 04:11:05;;;;;;;0.90;0.45;;;;;;;20.83;57.02;102259.50;5093911;28;20099;-69
2021/08/30 04:13:33;;;;;;;0.90;0.40;;;;;;;21.01;56.11;102274.06;5094241;28;20019;-69
2021/08/30 04:15:58;;;;;;;2.17;0.70;;;;;;;21.15;56.46;102278.09;5084448;28;20381;-68
2021/08/30 04:18:23;;;;;;;0.43;0.35;;;;;;;21.25;56.74;102249.69;5074064;28;20051;-69
2021/08/30 04:20:49;;;;;;;1.60;0.50;;;;;;;21.31;57.12;102237.25;5073472;28;20036;-68
2021/08/30 04:23:14;;;;;;;2.10;0.47;;;;;;;21.35;58.48;102241.44;5073288;28;20461;-67
2021/08/30 04:25:41;;;;;;;2.65;0.75;;;;;;;21.41;56.82;102248.13;5076793;28;20021;-67
2021/08/30 04:28:06;;;;;;;0.57;0.28;;;;;;;21.43;58.05;102240.63;5073347;28;20025;-68
2021/08/30 04:30:31;;;;;;;1.10;0.50;;;;;;;21.48;57.36;102243.72;5076091;28;20042;-68
2021/08/30 04:32:59;;;;;;;0.70;0.35;;;;;;;21.49;58.69;102245.44;5073430;28;20027;-68
2021/08/30 04:35:25;;;;;;;1.33;0.35;;;;;;;21.50;58.14;102247.16;5073527;28;20354;-69
2021/08/30 04:37:50;;;;;;;0.65;0.38;;;;;;;21.56;58.21;102247.41;5073426;28;20044;-68
2021/08/30 04:40:16;;;;;;;2.85;0.30;;;;;;;21.55;59.13;102253.91;5073405;28;20024;-68
2021/08/30 04:42:41;;;;;;;0.80;0.40;;;;;;;21.61;58.64;102245.03;5073082;28;20055;-68
2021/08/30 04:45:08;;;;;;;0.75;0.40;;;;;;;21.65;58.94;102256.53;5073445;28;20023;-68
2021/08/30 04:47:34;;;;;;;1.60;0.30;;;;;;;21.66;59.18;102247.28;5073755;28;20115;-68
2021/08/30 04:49:59;;;;;;;0.93;0.47;;;;;;;21.67;59.88;102249.03;5072782;28;20107;-68
2021/08/30 04:52:25;;;;;;;1.85;0.90;;;;;;;21.74;59.50;102249.25;5073409;28;20104;-68
2021/08/30 04:54:50;;;;;;;0.45;0.40;;;;;;;21.73;59.17;102245.66;5086272;28;20112;-68
2021/08/30 04:57:16;;;;;;;0.98;0.30;;;;;;;21.73;59.87;102247.53;5075689;28;20474;-69
2021/08/30 04:59:41;;;;;;;0.57;0.38;;;;;;;21.77;60.17;102255.25;5094925;28;20556;-67
2021/08/30 05:02:07;;;;;;;0.80;0.38;;;;;;;21.79;60.49;102245.00;5093264;28;20038;-68
2021/08/30 05:04:32;;;;;;;0.77;0.30;;;;;;;21.82;60.32;102247.41;5093232;28;20066;-68
2021/08/30 05:06:57;;;;;;;0.85;0.20;;;;;;;21.84;60.11;102250.03;5093212;28;20050;-68
2021/08/30 05:09:23;;;;;;;1.35;0.40;;;;;;;21.84;60.51;102250.03;5093210;28;20039;-67
2021/08/30 05:11:48;;;;;;;1.33;0.40;;;;;;;21.83;59.87;102253.75;5093241;28;20028;-67
2021/08/30 05:14:13;;;;;;;0.40;0.30;;;;;;;21.87;60.84;102245.06;5102992;28;20004;-68
2021/08/30 05:16:39;;;;;;;0.90;0.38;;;;;;;21.93;60.86;102255.38;5097933;28;20028;-67
2021/08/30 05:19:04;;;;;;;0.55;0.32;;;;;;;21.87;59.87;102258.75;5097024;28;20523;-68
2021/08/30 05:21:39;;;;;;;1.25;0.40;;;;;;;21.90;60.64;102261.19;5103119;28;20030;-68
2021/08/30 05:24:07;;;;;;;0.93;0.30;;;;;;;21.90;60.00;102255.69;5079483;28;20573;-68
2021/08/30 05:26:37;;;;;;;2.03;0.43;;;;;;;21.83;59.76;102259.22;5079084;28;20367;-69
2021/08/30 05:29:03;;;;;;;1.40;0.43;;;;;;;21.76;59.96;102256.28;5096946;28;20027;-69
2021/08/30 05:31:29;;;;;;;2.47;0.52;;;;;;;21.80;60.25;102254.94;5096818;28;20028;-70
2021/08/30 05:33:57;;;;;;;0.85;0.35;;;;;;;21.78;60.51;102246.03;5099361;28;20064;-69
2021/08/30 05:36:23;;;;;;;1.30;0.60;;;;;;;21.80;59.62;102252.19;5096665;28;20102;-69
2021/08/30 05:38:49;;;;;;;1.17;0.32;;;;;;;21.79;58.93;102249.63;5096984;28;20038;-68
2021/08/30 05:41:15;;;;;;;1.17;0.32;;;;;;;21.78;58.66;102246.03;5096628;28;20059;-69
2021/08/30 05:43:40;;;;;;;1.45;0.43;;;;;;;21.78;59.86;102245.16;5096840;28;20560;-69
2021/08/30 05:46:05;;;;;;;1.58;0.40;;;;;;;21.85;59.23;102249.00;5099082;28;20024;-68
2021/08/30 05:48:31;;;;;;;0.65;0.20;;;;;;;21.79;59.25;102252.34;5096456;28;20115;-69
2021/08/30 05:50:56;;;;;;;1.23;0.75;;;;;;;21.85;59.47;102254.47;5098537;28;20020;-70
2021/08/30 05:53:21;;;;;;;1.58;0.60;;;;;;;21.79;59.16;102253.22;5096448;28;20461;-69
2021/08/30 05:55:47;;;;;;;1.40;0.32;;;;;;;21.84;59.98;102256.34;5096295;28;20035;-69
2021/08/30 05:58:12;;;;;;;1.15;0.40;;;;;;;21.86;58.97;102259.78;5096228;28;20134;-69
2021/08/30 06:00:37;;;;;;;3.08;0.55;;;;;;;21.80;59.84;102260.41;5096207;28;20024;-69
2021/08/30 06:03:03;;;;;;;1.08;0.50;;;;;;;21.81;59.92;102255.78;5096019;28;20027;-69
2021/08/30 06:05:28;;;;;;;1.65;0.55;;;;;;;21.79;60.25;102258.69;5096234;28;20024;-69
2021/08/30 06:07:54;;;;;;;0.77;0.28;;;;;;;21.76;59.18;102245.31;5094046;28;20032;-69
2021/08/30 06:10:19;;;;;;;2.15;0.60;;;;;;;21.76;60.12;102248.06;5096155;28;20415;-69
2021/08/30 06:12:45;;;;;;;0.50;0.32;;;;;;;21.78;59.79;102256.97;5098031;28;20020;-68
2021/08/30 06:15:10;;;;;;;0.95;0.20;;;;;;;21.77;59.93;102255.25;5097063;28;20048;-69
2021/08/30 06:17:37;;;;;;;2.08;0.77;;;;;;;21.87;59.51;102253.28;5077866;28;20027;-69
2021/08/30 06:20:03;;;;;;;0.93;0.47;;;;;;;21.82;60.06;102272.06;5094960;28;20480;-69
2021/08/30 06:22:28;;;;;;;1.58;0.40;;;;;;;21.79;59.79;102268.78;5099751;28;20032;-69
2021/08/30 06:24:53;;;;;;;1.98;0.70;;;;;;;21.82;59.28;102272.06;5094863;28;20046;-69
2021/08/30 06:27:20;;;;;;;2.42;0.40;;;;;;;21.83;60.17;102275.66;5095726;28;20484;-68
2021/08/30 06:29:47;;;;;;;2.20;0.38;;;;;;;21.83;60.12;102281.97;5095660;28;20063;-68
2021/08/30 06:32:12;;;;;;;2.38;0.85;;;;;;;21.83;60.61;102281.97;5095430;28;20358;-68
2021/08/30 06:34:37;;;;;;;1.92;0.77;;;;;;;21.82;60.55;102280.25;5095288;28;20036;-68
2021/08/30 06:37:03;;;;;;;1.42;0.32;;;;;;;21.89;59.13;102281.38;5099516;28;20020;-66
2021/08/30 06:39:29;;;;;;;2.00;0.50;;;;;;;21.88;59.73;102273.31;5085117;28;20513;-68
2021/08/30 06:41:54;;;;;;;0.35;0.20;;;;;;;21.83;60.70;102281.13;5091600;28;20021;-68
2021/08/30 06:44:20;;;;;;;0.73;0.28;;;;;;;21.88;60.73;102274.16;5093521;28;20035;-68
2021/08/30 06:46:45;;;;;;;0.77;0.40;;;;;;;21.82;60.18;102263.84;5095550;28;20027;-68
2021/08/30 06:49:10;;;;;;;1.52;0.50;;;;;;;21.86;61.01;102270.75;5092248;28;20024;-68
2021/08/30 06:51:36;;;;;;;1.90;0.60;;;;;;;21.83;60.74;102275.66;5092733;28;20363;-67
2021/08/30 06:54:01;;;;;;;0.93;0.50;;;;;;;21.88;60.45;102268.69;5097915;28;20008;-68
2021/08/30 06:56:26;;;;;;;1.42;0.40;;;;;;;21.86;60.84;102268.00;5094912;28;20472;-68
2021/08/30 06:58:52;;;;;;;1.25;0.47;;;;;;;21.86;60.15;102270.75;5094283;28;20465;-68
2021/08/30 07:01:17;;;;;;;0.93;0.22;;;;;;;21.86;60.87;102273.47;5076530;28;20050;-67
2021/08/30 07:03:42;;;;;;;2.20;0.50;;;;;;;21.88;60.09;102282.38;5074934;28;20047;-68
2021/08/30 07:06:08;;;;;;;0.68;0.45;;;;;;;21.89;61.00;102278.63;5093060;28;20032;-68
2021/08/30 07:08:33;;;;;;;1.48;0.50;;;;;;;21.87;60.92;102271.59;5094339;28;20020;-66
2021/08/30 07:10:59;;;;;;;2.60;0.50;;;;;;;21.91;60.60;102273.84;5097262;28;20570;-67
2021/08/30 07:13:24;;;;;;;3.50;0.95;;;;;;;21.86;60.35;102280.84;5094034;28;20030;-67
2021/08/30 07:15:50;;;;;;;1.98;0.63;;;;;;;21.90;60.24;102276.75;5094105;28;20496;-67
2021/08/30 07:18:16;;;;;;;1.27;0.60;;;;;;;21.91;60.50;102284.78;5093882;28;20028;-67
2021/08/30 07:20:41;;;;;;;1.10;0.52;;;;;;;21.93;60.79;102287.38;5092613;28;20032;-63
2021/08/30 07:23:07;;;;;;;1.70;0.50;;;;;;;21.92;61.09;102285.66;5095140;28;20361;-67
2021/08/30 07:25:33;;;;;;;1.73;0.82;;;;;;;21.90;59.72;102294.03;5094025;28;20047;-67
2021/08/30 07:27:58;;;;;;;0.90;0.30;;;;;;;21.91;60.79;102293.00;5094533;28;20453;-67
2021/08/30 07:30:24;;;;;;;0.63;0.43;;;;;;;21.94;61.04;102289.09;5094526;28;20504;-67
2021/08/30 07:32:49;;;;;;;1.45;0.40;;;;;;;21.93;61.17;102288.22;5097480;28;20362;-67
2021/08/30 07:35:15;;;;;;;1.17;0.45;;;;;;;21.96;60.94;102302.63;5098052;28;20028;-67
2021/08/30 07:37:41;;;;;;;1.95;0.50;;;;;;;21.95;60.78;102293.53;5094368;28;20098;-67
2021/08/30 07:40:07;;;;;;;0.98;0.60;;;;;;;21.92;61.12;102292.00;5091747;28;20067;-67
2021/08/30 07:42:32;;;;;;;2.65;0.40;;;;;;;21.92;60.92;102289.25;5093246;28;20058;-67
2021/08/30 07:44:58;;;;;;;1.83;0.57;;;;;;;21.93;60.85;102299.19;5087791;28;20465;-67
2021/08/30 07:47:23;;;;;;;3.95;0.65;;;;;;;21.93;61.00;102290.97;5085189;28;20051;-67
2021/08/30 07:49:48;;;;;;;3.13;1.05;;;;;;;21.93;60.16;102293.69;5091685;28;20026;-67
2021/08/30 07:52:14;;;;;;;2.15;0.60;;;;;;;21.96;59.54;102294.41;5093787;28;20024;-67
2021/08/30 07:54:39;;;;;;;3.90;0.50;;;;;;;21.96;60.22;102297.13;5094293;28;20024;-67
2021/08/30 07:57:05;;;;;;;1.77;0.50;;;;;;;21.98;60.23;102293.22;5093938;28;20016;-67
2021/08/30 07:59:30;;;;;;;0.68;0.45;;;;;;;21.98;61.11;102278.66;5083678;28;20048;-67
2021/08/30 08:01:55;;;;;;;1.00;0.50;;;;;;;21.96;61.08;102281.56;5093279;28;20027;-67
2021/08/30 08:04:21;;;;;;;1.25;0.30;;;;;;;21.97;60.18;102276.94;5095912;28;20534;-67
2021/08/30 08:06:46;;;;;;;3.25;0.85;;;;;;;21.98;61.40;102275.94;5093576;28;20537;-68
2021/08/30 08:09:11;;;;;;;1.48;0.52;;;;;;;21.98;61.12;102273.19;5093179;28;20111;-67
2021/08/30 08:11:36;;;;;;;0.85;0.32;;;;;;;21.98;60.04;102281.41;5093689;28;20464;-67
2021/08/30 08:14:02;;;;;;;1.30;1.02;;;;;;;22.00;60.28;102282.09;5093231;28;20411;-67
2021/08/30 08:16:28;;;;;;;1.30;0.45;;;;;;;21.99;60.72;102285.84;5094106;28;20061;-67
2021/08/30 08:18:54;;;;;;;0.80;0.38;;;;;;;22.00;60.65;102282.09;5095656;28;20020;-66
2021/08/30 08:21:21;;;;;;;1.00;0.50;;;;;;;22.00;61.08;102284.84;5094234;28;20093;-67
2021/08/30 08:23:49;;;;;;;2.33;0.55;;;;;;;22.00;60.19;102282.09;5093341;28;20471;-67
2021/08/30 08:26:14;;;;;;;0.50;0.25;;;;;;;21.98;60.81;102285.00;5093591;28;20020;-67
2021/08/30 08:28:41;;;;;;;1.75;0.30;;;;;;;22.05;61.17;102285.25;5097685;28;20376;-67
2021/08/30 08:31:06;;;;;;;1.67;0.70;;;;;;;22.03;60.45;102282.66;5090652;28;20107;-67
2021/08/30 08:33:33;;;;;;;0.47;0.28;;;;;;;22.00;60.53;102293.91;5092284;28;20103;-67
2021/08/30 08:35:58;;;;;;;2.28;0.70;;;;;;;22.03;61.07;102295.50;5093266;28;20032;-67
2021/08/30 08:38:24;;;;;;;1.80;0.30;;;;;;;22.02;61.46;102291.91;5093502;28;20024;-67
2021/08/30 08:40:50;;;;;;;1.30;0.45;;;;;;;22.06;60.36;102292.47;5093344;28;20461;-67
2021/08/30 08:43:18;;;;;;;1.38;0.43;;;;;;;22.05;60.70;102293.47;5093387;28;20104;-67
2021/08/30 08:45:46;;;;;;;2.20;0.40;;;;;;;22.05;61.07;102285.25;5093063;28;20055;-67
2021/08/30 08:48:12;;;;;;;1.55;0.90;;;;;;;22.01;61.09;102294.81;5093889;28;20034;-66
2021/08/30 08:50:38;;;;;;;1.27;0.45;;;;;;;22.00;60.02;102287.56;5092518;28;20024;-67
2021/08/30 08:53:33;;;;;;;4.78;0.80;;;;;;;22.03;61.12;102292.75;5095656;28;20035;-67
2021/08/30 08:55:58;;;;;;;1.27;0.38;;;;;;;21.98;61.22;102290.47;5010344;28;20046;-67
2021/08/30 08:58:23;;;;;;;0.73;0.30;;;;;;;22.02;61.23;102307.47;5045988;22;20111;-67
2021/08/30 09:01:10;;;;;;;1.38;0.32;;;;;;;22.02;60.08;102285.56;5046860;28;20029;-67
2021/08/30 09:03:42;;;;;;;1.27;0.40;;;;;;;22.04;60.75;102278.91;5050033;28;20590;-67
2021/08/30 09:06:07;;;;;;;1.05;0.50;;;;;;;22.01;60.02;102283.84;5053069;28;20017;-68
2021/08/30 09:08:38;;;;;;;1.80;0.50;;;;;;;21.99;61.52;102285.84;5052448;28;20087;-67
2021/08/30 09:11:19;;;;;;;1.35;0.60;;;;;;;22.00;61.29;102276.63;5052770;28;20071;-67
2021/08/30 09:13:55;;;;;;;1.95;0.65;;;;;;;22.05;60.02;102274.31;5052994;28;20045;-67
2021/08/30 09:16:24;;;;;;;1.65;0.50;;;;;;;21.99;61.25;102263.94;5046158;28;20029;-66
2021/08/30 09:19:01;;;;;;;1.70;0.40;;;;;;;22.01;60.65;102267.41;5058502;28;20028;-67
2021/08/30 09:21:26;;;;;;;1.90;0.30;;;;;;;22.01;61.00;102268.28;5052951;28;20429;-68
2021/08/30 09:23:52;;;;;;;0.90;0.50;;;;;;;22.03;60.62;102255.28;5049211;28;20052;-68
2021/08/30 09:26:20;;;;;;;0.50;0.20;;;;;;;22.02;60.14;102260.91;5044323;28;20529;-68
2021/08/30 09:28:55;;;;;;;2.13;0.35;;;;;;;22.10;60.17;102255.50;5037313;28;20030;-68
2021/08/30 09:31:22;;;;;;;1.50;0.65;;;;;;;22.04;61.04;102284.38;5027808;28;20063;-67
2021/08/30 09:33:52;;;;;;;1.27;0.38;;;;;;;22.02;60.37;102263.66;5052717;28;20025;-68
2021/08/30 09:36:17;;;;;;;2.10;0.30;;;;;;;22.07;60.79;102266.78;5034708;28;20028;-67
2021/08/30 09:38:43;;;;;;;0.60;0.30;;;;;;;22.07;61.08;102285.97;5052260;28;20037;-68
2021/08/30 09:41:11;;;;;;;0.93;0.40;;;;;;;22.03;60.91;102277.19;5045326;28;20104;-66
2021/08/30 09:43:37;;;;;;;1.48;0.40;;;;;;;22.02;60.96;102285.56;5034218;28;20033;-67
2021/08/30 09:46:04;;;;;;;1.33;0.50;;;;;;;22.00;61.01;102282.09;5052137;28;20104;-67
2021/08/30 09:48:31;;;;;;;1.02;0.40;;;;;;;22.02;61.14;102285.56;5051983;28;20021;-68
2021/08/30 09:51:01;;;;;;;2.03;0.50;;;;;;;22.01;61.62;102275.63;5033819;28;20104;-67
2021/08/30 09:53:27;;;;;;;1.58;0.35;;;;;;;22.05;60.94;102274.31;5036474;28;20362;-67
2021/08/30 09:55:54;;;;;;;1.65;0.40;;;;;;;22.02;60.38;102280.09;5035405;28;20221;-67
2021/08/30 09:58:20;;;;;;;2.05;0.40;;;;;;;22.07;61.08;102277.75;5031851;28;20069;-67
2021/08/30 10:00:50;;;;;;;0.93;0.35;;;;;;;22.06;60.76;102276.88;5033046;28;20057;-67
2021/08/30 10:03:16;;;;;;;0.73;0.30;;;;;;;22.02;60.56;102261.78;5034813;28;20057;-67
2021/08/30 10:05:42;;;;;;;1.77;0.55;;;;;;;22.07;61.01;102266.78;5054080;28;20139;-65
2021/08/30 10:08:07;;;;;;;0.45;0.15;;;;;;;22.14;61.47;102256.88;5055460;28;20037;-66
2021/08/30 10:10:33;;;;;;;1.73;0.40;;;;;;;22.12;60.33;102264.41;5054832;28;20041;-66
2021/08/30 10:13:00;;;;;;;0.70;0.30;;;;;;;22.15;60.08;102261.34;5054227;28;20021;-66
2021/08/30 10:15:27;;;;;;;0.40;0.20;;;;;;;22.12;60.63;102251.56;5055406;28;20023;-65
2021/08/30 10:17:54;;;;;;;0.73;0.43;;;;;;;22.13;60.55;102255.16;5055320;28;20421;-66
2021/08/30 10:20:28;;;;;;;1.30;0.20;;;;;;;22.14;60.63;102251.41;5037603;28;20052;-65
2021/08/30 10:23:02;;;;;;;2.22;0.60;;;;;;;22.14;60.43;102252.28;5056329;28;20029;-65
2021/08/30 10:25:28;;;;;;;;;;;;;;;22.16;60.12;102254.84;5055762;28;20031;-66
2021/08/30 10:28:13;;;;;;;1.90;0.75;;;;;;;22.19;60.47;102254.53;5055482;28;19999;-64
2021/08/30 10:30:52;;;;;;;1.13;0.43;;;;;;;22.18;60.59;102250.09;5055255;28;20041;-65
2021/08/30 10:33:22;;;;;;;0.38;0.20;;;;;;;22.16;59.79;102249.38;5057583;28;20052;-64
2021/08/30 10:35:47;;;;;;;2.25;0.70;;;;;;;22.15;61.10;102248.50;5055619;28;20021;-65
2021/08/30 10:38:18;;;;;;;1.85;0.60;;;;;;;22.14;60.61;102251.41;5055419;28;20067;-65
2021/08/30 10:40:49;;;;;;;0.80;0.35;;;;;;;22.18;60.40;102248.22;5055462;28;20024;-65
2021/08/30 10:43:16;;;;;;;1.05;0.40;;;;;;;22.20;60.43;102248.03;5055358;28;20025;-65
2021/08/30 10:45:56;;;;;;;2.95;0.70;;;;;;;22.21;59.88;102244.28;5048347;28;20496;-65
2021/08/30 10:48:34;;;;;;;0.60;0.30;;;;;;;22.22;60.85;102235.03;5036341;28;20033;-65
2021/08/30 10:51:11;;;;;;;1.77;0.40;;;;;;;22.13;59.08;102233.25;5035127;28;20021;-65
2021/08/30 10:53:37;;;;;;;0.98;0.40;;;;;;;22.15;60.25;102243.03;5035367;28;20024;-65
2021/08/30 10:56:09;;;;;;;3.80;0.70;;;;;;;22.19;59.97;102238.09;5034859;28;20104;-65
2021/08/30 10:58:34;;;;;;;0.63;0.25;;;;;;;22.19;59.77;102238.09;5015400;28;20565;-64
2021/08/30 11:01:10;;;;;;;1.13;0.32;;;;;;;22.23;60.25;102233.16;5015146;28;20113;-66
2021/08/30 11:03:36;;;;;;;0.68;0.40;;;;;;;22.23;61.06;102239.50;5016809;28;20053;-65
2021/08/30 11:06:14;;;;;;;1.00;0.20;;;;;;;22.24;60.14;102229.38;5015246;28;20061;-65
2021/08/30 11:08:40;;;;;;;0.98;0.40;;;;;;;22.23;60.10;102244.97;5026382;28;20136;-65
2021/08/30 11:11:27;;;;;;;0.57;0.25;;;;;;;22.20;60.40;102245.31;5034529;28;20033;-65
2021/08/30 11:14:04;;;;;;;1.00;0.20;;;;;;;22.25;60.06;102242.91;5031944;28;20021;-66
2021/08/30 11:16:33;;;;;;;2.67;0.60;;;;;;;22.16;60.08;102238.41;5034607;28;20381;-65
2021/08/30 11:19:03;;;;;;;1.58;0.73;;;;;;;22.20;60.82;102239.81;5033864;28;20033;-65
2021/08/30 11:21:38;;;;;;;2.25;0.80;;;;;;;22.20;60.68;102245.31;5034837;28;20056;-65
2021/08/30 11:24:08;;;;;;;0.80;0.30;;;;;;;22.28;60.34;102233.50;5035789;28;20034;-63
2021/08/30 11:26:35;;;;;;;0.82;0.50;;;;;;;22.19;59.90;102232.63;5032795;28;20037;-65
2021/08/30 11:29:05;;;;;;;1.08;0.50;;;;;;;22.20;60.26;102235.19;5024693;28;20076;-65
2021/08/30 11:31:33;;;;;;;0.90;0.50;;;;;;;22.23;61.47;102239.50;5014835;28;20026;-66